sensor_id;sensor_type;location;lat;lon;timestamp;pressure;altitude;pressure_sealevel;temperature;humidity
60319;BME280;46163;52.306;5.634;2023-09-08T00:00:57;101587.31;;;17.86;82.30
60319;BME280;46163;52.306;5.634;2023-09-08T00:03:23;101594.94;;;17.89;82.34
60319;BME280;46163;52.306;5.634;2023-09-08T00:05:48;101594.16;;;18.00;80.46
60319;BME280;46163;52.306;5.634;2023-09-08T00:08:14;101591.47;;;18.12;80.48
60319;BME280;46163;52.306;5.634;2023-09-08T00:10:40;101588.69;;;18.19;80.40
60319;BME280;46163;52.306;5.634;2023-09-08T00:13:05;101588.69;;;18.30;78.99
60319;BME280;46163;52.306;5.634;2023-09-08T00:15:33;101580.69;;;18.24;79.09
60319;BME280;46163;52.306;5.634;2023-09-08T00:18:00;101589.97;;;18.28;79.48
60319;BME280;46163;52.306;5.634;2023-09-08T00:20:25;101582.59;;;18.35;79.04
60319;BME280;46163;52.306;5.634;2023-09-08T00:22:50;101588.44;;;18.08;78.98
60319;BME280;46163;52.306;5.634;2023-09-08T00:25:16;101576.47;;;17.93;79.97
60319;BME280;46163;52.306;5.634;2023-09-08T00:27:41;101589.44;;;17.84;80.45
60319;BME280;46163;52.306;5.634;2023-09-08T00:30:07;101581.16;;;17.67;81.18
60319;BME280;46163;52.306;5.634;2023-09-08T00:32:33;101588.41;;;17.97;79.33
60319;BME280;46163;52.306;5.634;2023-09-08T00:34:58;101583.47;;;17.82;79.86
60319;BME280;46163;52.306;5.634;2023-09-08T00:37:24;101582.66;;;17.82;79.87
60319;BME280;46163;52.306;5.634;2023-09-08T00:39:49;101588.28;;;17.92;79.26
60319;BME280;46163;52.306;5.634;2023-09-08T00:42:15;101583.16;;;18.02;78.70
60319;BME280;46163;52.306;5.634;2023-09-08T00:44:40;101575.53;;;17.99;78.32
60319;BME280;46163;52.306;5.634;2023-09-08T00:47:06;101566.75;;;18.03;78.45
60319;BME280;46163;52.306;5.634;2023-09-08T00:49:31;101579.88;;;18.12;78.13
60319;BME280;46163;52.306;5.634;2023-09-08T00:51:57;101581.44;;;18.43;76.84
60319;BME280;46163;52.306;5.634;2023-09-08T00:54:22;101572.63;;;18.47;76.07
60319;BME280;46163;52.306;5.634;2023-09-08T00:56:48;101579.44;;;18.61;75.35
60319;BME280;46163;52.306;5.634;2023-09-08T00:59:17;101582.56;;;18.58;76.23
60319;BME280;46163;52.306;5.634;2023-09-08T01:01:43;101577.34;;;18.52;77.10
60319;BME280;46163;52.306;5.634;2023-09-08T01:04:08;101553.41;;;18.32;77.35
60319;BME280;46163;52.306;5.634;2023-09-08T01:06:34;101576.50;;;18.51;76.80
60319;BME280;46163;52.306;5.634;2023-09-08T01:09:00;101568.06;;;18.48;77.27
60319;BME280;46163;52.306;5.634;2023-09-08T01:11:25;101553.66;;;18.42;78.03
60319;BME280;46163;52.306;5.634;2023-09-08T01:13:51;101571.00;;;18.46;77.42
60319;BME280;46163;52.306;5.634;2023-09-08T01:16:16;101575.09;;;18.49;77.67
60319;BME280;46163;52.306;5.634;2023-09-08T01:18:43;101580.59;;;18.30;78.66
60319;BME280;46163;52.306;5.634;2023-09-08T01:26:48;101570.91;;;17.76;79.99
60319;BME280;46163;52.306;5.634;2023-09-08T01:29:15;101568.84;;;17.60;80.52
60319;BME280;46163;52.306;5.634;2023-09-08T01:31:41;101579.53;;;17.66;80.94
60319;BME280;46163;52.306;5.634;2023-09-08T01:34:08;101568.94;;;17.53;80.69
60319;BME280;46163;52.306;5.634;2023-09-08T01:36:34;101577.31;;;17.45;81.88
60319;BME280;46163;52.306;5.634;2023-09-08T01:39:02;101572.66;;;17.40;81.44
60319;BME280;46163;52.306;5.634;2023-09-08T01:41:28;101572.56;;;17.29;81.81
60319;BME280;46163;52.306;5.634;2023-09-08T01:43:55;101581.63;;;17.34;81.55
60319;BME280;46163;52.306;5.634;2023-09-08T01:46:20;101573.59;;;17.46;81.02
60319;BME280;46163;52.306;5.634;2023-09-08T01:48:46;101579.47;;;17.73;80.39
60319;BME280;46163;52.306;5.634;2023-09-08T01:51:11;101575.25;;;17.77;80.40
60319;BME280;46163;52.306;5.634;2023-09-08T01:53:37;101575.25;;;17.77;80.21
60319;BME280;46163;52.306;5.634;2023-09-08T01:56:02;101572.38;;;17.90;80.54
60319;BME280;46163;52.306;5.634;2023-09-08T01:58:28;101557.63;;;17.93;79.92
60319;BME280;46163;52.306;5.634;2023-09-08T02:00:58;101560.66;;;17.96;79.94
60319;BME280;46163;52.306;5.634;2023-09-08T02:03:31;101555.50;;;17.95;79.68
60319;BME280;46163;52.306;5.634;2023-09-08T02:05:57;101564.97;;;17.97;79.25
60319;BME280;46163;52.306;5.634;2023-09-08T02:08:22;101570.97;;;17.99;79.34
60319;BME280;46163;52.306;5.634;2023-09-08T02:10:47;101571.56;;;18.01;79.26
60319;BME280;46163;52.306;5.634;2023-09-08T02:13:13;101561.69;;;17.95;79.19
60319;BME280;46163;52.306;5.634;2023-09-08T02:15:38;101551.16;;;17.94;79.36
60319;BME280;46163;52.306;5.634;2023-09-08T02:18:04;101565.94;;;17.91;79.26
60319;BME280;46163;52.306;5.634;2023-09-08T02:20:29;101567.34;;;17.64;80.11
60319;BME280;46163;52.306;5.634;2023-09-08T02:22:55;101574.94;;;17.55;80.94
60319;BME280;46163;52.306;5.634;2023-09-08T02:25:23;101577.78;;;17.42;81.63
60319;BME280;46163;52.306;5.634;2023-09-08T02:27:49;101565.47;;;17.34;81.52
60319;BME280;46163;52.306;5.634;2023-09-08T02:30:14;101570.59;;;17.24;81.35
60319;BME280;46163;52.306;5.634;2023-09-08T02:32:40;101554.53;;;17.17;81.89
60319;BME280;46163;52.306;5.634;2023-09-08T02:35:08;101560.94;;;17.16;82.55
60319;BME280;46163;52.306;5.634;2023-09-08T02:37:34;101565.34;;;17.11;82.97
60319;BME280;46163;52.306;5.634;2023-09-08T02:40:02;101563.59;;;17.05;82.64
60319;BME280;46163;52.306;5.634;2023-09-08T02:42:29;101565.66;;;17.03;83.38
60319;BME280;46163;52.306;5.634;2023-09-08T02:44:54;101564.94;;;16.95;83.25
60319;BME280;46163;52.306;5.634;2023-09-08T02:47:20;101562.25;;;16.95;82.98
60319;BME280;46163;52.306;5.634;2023-09-08T02:49:45;101564.13;;;16.95;83.05
60319;BME280;46163;52.306;5.634;2023-09-08T02:52:10;101566.88;;;16.88;83.84
60319;BME280;46163;52.306;5.634;2023-09-08T02:54:36;101571.06;;;16.84;83.87
60319;BME280;46163;52.306;5.634;2023-09-08T02:57:01;101560.22;;;16.73;84.27
60319;BME280;46163;52.306;5.634;2023-09-08T02:59:27;101576.28;;;16.79;84.22
60319;BME280;46163;52.306;5.634;2023-09-08T03:01:52;101565.88;;;16.64;84.29
60319;BME280;46163;52.306;5.634;2023-09-08T03:04:18;101571.44;;;16.70;84.22
60319;BME280;46163;52.306;5.634;2023-09-08T03:06:43;101575.19;;;16.69;84.46
60319;BME280;46163;52.306;5.634;2023-09-08T03:09:09;101547.41;;;16.50;84.70
60319;BME280;46163;52.306;5.634;2023-09-08T03:11:34;101570.44;;;16.64;84.96
60319;BME280;46163;52.306;5.634;2023-09-08T03:14:00;101572.13;;;16.58;84.63
60319;BME280;46163;52.306;5.634;2023-09-08T03:16:25;101574.44;;;16.55;84.76
60319;BME280;46163;52.306;5.634;2023-09-08T03:18:50;101568.78;;;16.45;84.87
60319;BME280;46163;52.306;5.634;2023-09-08T03:21:16;101571.22;;;16.46;84.97
60319;BME280;46163;52.306;5.634;2023-09-08T03:23:43;101568.78;;;16.45;85.08
60319;BME280;46163;52.306;5.634;2023-09-08T03:26:09;101561.22;;;16.35;85.21
60319;BME280;46163;52.306;5.634;2023-09-08T03:28:36;101566.97;;;16.38;85.27
60319;BME280;46163;52.306;5.634;2023-09-08T03:31:02;101558.75;;;16.33;85.79
60319;BME280;46163;52.306;5.634;2023-09-08T03:33:30;101554.69;;;16.24;85.82
60319;BME280;46163;52.306;5.634;2023-09-08T03:35:55;101562.31;;;16.27;85.87
60319;BME280;46163;52.306;5.634;2023-09-08T03:38:22;101555.53;;;16.25;86.28
60319;BME280;46163;52.306;5.634;2023-09-08T03:40:48;101550.22;;;16.18;86.20
60319;BME280;46163;52.306;5.634;2023-09-08T03:43:13;101552.31;;;16.16;86.57
60319;BME280;46163;52.306;5.634;2023-09-08T03:45:39;101554.31;;;16.21;86.31
60319;BME280;46163;52.306;5.634;2023-09-08T03:48:05;101547.56;;;16.11;87.26
60319;BME280;46163;52.306;5.634;2023-09-08T03:50:30;101546.09;;;16.16;86.44
60319;BME280;46163;52.306;5.634;2023-09-08T03:52:56;101542.44;;;16.10;86.40
60319;BME280;46163;52.306;5.634;2023-09-08T03:55:21;101545.44;;;16.20;86.66
60319;BME280;46163;52.306;5.634;2023-09-08T03:57:47;101563.63;;;16.18;86.78
60319;BME280;46163;52.306;5.634;2023-09-08T04:00:13;101551.09;;;16.12;86.89
60319;BME280;46163;52.306;5.634;2023-09-08T04:02:44;101546.59;;;16.06;86.87
60319;BME280;46163;52.306;5.634;2023-09-08T04:05:10;101551.09;;;16.12;87.07
60319;BME280;46163;52.306;5.634;2023-09-08T04:07:36;101539.03;;;15.96;86.88
60319;BME280;46163;52.306;5.634;2023-09-08T04:10:01;101546.84;;;15.98;87.22
60319;BME280;46163;52.306;5.634;2023-09-08T04:12:28;101541.34;;;15.93;87.18
60319;BME280;46163;52.306;5.634;2023-09-08T04:14:53;101549.53;;;15.98;87.35
60319;BME280;46163;52.306;5.634;2023-09-08T04:17:19;101539.91;;;15.90;87.40
60319;BME280;46163;52.306;5.634;2023-09-08T04:19:44;101535.19;;;15.86;87.37
60319;BME280;46163;52.306;5.634;2023-09-08T04:22:10;101538.47;;;15.88;87.69
60319;BME280;46163;52.306;5.634;2023-09-08T04:24:36;101538.69;;;15.86;87.85
60319;BME280;46163;52.306;5.634;2023-09-08T04:27:04;101536.88;;;15.80;87.78
60319;BME280;46163;52.306;5.634;2023-09-08T04:29:29;101543.47;;;15.84;87.70
60319;BME280;46163;52.306;5.634;2023-09-08T04:31:55;101541.19;;;15.81;87.78
60319;BME280;46163;52.306;5.634;2023-09-08T04:34:20;101540.19;;;15.82;87.87
60319;BME280;46163;52.306;5.634;2023-09-08T04:36:46;101538.97;;;15.78;88.08
60319;BME280;46163;52.306;5.634;2023-09-08T04:39:12;101546.56;;;15.81;88.04
60319;BME280;46163;52.306;5.634;2023-09-08T04:41:37;101548.03;;;15.83;88.67
60319;BME280;46163;52.306;5.634;2023-09-08T04:44:04;101544.28;;;15.85;87.81
60319;BME280;46163;52.306;5.634;2023-09-08T04:46:30;101539.75;;;15.85;88.30
60319;BME280;46163;52.306;5.634;2023-09-08T04:48:55;101551.75;;;15.82;87.66
60319;BME280;46163;52.306;5.634;2023-09-08T04:51:21;101545.38;;;15.77;87.99
60319;BME280;46163;52.306;5.634;2023-09-08T04:53:46;101541.06;;;15.76;87.52
60319;BME280;46163;52.306;5.634;2023-09-08T04:56:13;101544.56;;;15.76;88.84
60319;BME280;46163;52.306;5.634;2023-09-08T04:58:38;101538.59;;;15.74;88.49
60319;BME280;46163;52.306;5.634;2023-09-08T05:01:04;101551.78;;;15.76;88.38
60319;BME280;46163;52.306;5.634;2023-09-08T05:03:30;101546.41;;;15.76;88.71
60319;BME280;46163;52.306;5.634;2023-09-08T05:05:56;101545.94;;;15.86;87.98
60319;BME280;46163;52.306;5.634;2023-09-08T05:08:22;101542.69;;;15.77;87.48
60319;BME280;46163;52.306;5.634;2023-09-08T05:10:47;101551.13;;;15.80;87.81
60319;BME280;46163;52.306;5.634;2023-09-08T05:13:13;101541.69;;;15.71;87.94
60319;BME280;46163;52.306;5.634;2023-09-08T05:15:38;101532.88;;;15.64;88.15
60319;BME280;46163;52.306;5.634;2023-09-08T05:18:05;101542.94;;;15.69;88.48
60319;BME280;46163;52.306;5.634;2023-09-08T05:20:30;101541.75;;;15.65;89.32
60319;BME280;46163;52.306;5.634;2023-09-08T05:22:55;101538.19;;;15.71;88.50
60319;BME280;46163;52.306;5.634;2023-09-08T05:25:21;101546.88;;;15.73;89.24
60319;BME280;46163;52.306;5.634;2023-09-08T05:27:46;101550.50;;;15.78;88.68
60319;BME280;46163;52.306;5.634;2023-09-08T05:30:12;101543.44;;;15.91;88.76
60319;BME280;46163;52.306;5.634;2023-09-08T05:32:38;101540.06;;;15.95;87.89
60319;BME280;46163;52.306;5.634;2023-09-08T05:35:06;101527.50;;;15.89;88.04
60319;BME280;46163;52.306;5.634;2023-09-08T05:37:31;101541.94;;;15.95;88.27
60319;BME280;46163;52.306;5.634;2023-09-08T05:39:57;101540.50;;;15.92;88.15
60319;BME280;46163;52.306;5.634;2023-09-08T05:42:22;101542.13;;;16.00;88.66
60319;BME280;46163;52.306;5.634;2023-09-08T05:44:48;101548.53;;;15.99;88.27
60319;BME280;46163;52.306;5.634;2023-09-08T05:47:14;101549.16;;;16.19;86.92
60319;BME280;46163;52.306;5.634;2023-09-08T05:49:39;101560.50;;;16.21;87.35
60319;BME280;46163;52.306;5.634;2023-09-08T05:52:05;101556.53;;;16.24;87.57
60319;BME280;46163;52.306;5.634;2023-09-08T05:54:30;101565.88;;;16.21;87.45
60319;BME280;46163;52.306;5.634;2023-09-08T05:56:56;101565.91;;;16.39;86.05
60319;BME280;46163;52.306;5.634;2023-09-08T05:59:21;101560.41;;;16.34;86.67
60319;BME280;46163;52.306;5.634;2023-09-08T06:01:47;101556.34;;;16.25;87.79
60319;BME280;46163;52.306;5.634;2023-09-08T06:04:13;101571.72;;;16.36;88.02
60319;BME280;46163;52.306;5.634;2023-09-08T06:06:38;101554.69;;;16.24;87.86
60319;BME280;46163;52.306;5.634;2023-09-08T06:09:06;101576.66;;;16.39;88.65
60319;BME280;46163;52.306;5.634;2023-09-08T06:11:33;101565.31;;;16.37;87.63
60319;BME280;46163;52.306;5.634;2023-09-08T06:13:59;101560.13;;;16.43;88.23
60319;BME280;46163;52.306;5.634;2023-09-08T06:16:26;101570.13;;;16.54;87.94
60319;BME280;46163;52.306;5.634;2023-09-08T06:18:51;101570.88;;;16.61;87.83
60319;BME280;46163;52.306;5.634;2023-09-08T06:21:20;101581.53;;;16.67;88.14
60319;BME280;46163;52.306;5.634;2023-09-08T06:23:49;101565.41;;;16.67;87.23
60319;BME280;46163;52.306;5.634;2023-09-08T06:26:14;101570.69;;;16.81;87.35
60319;BME280;46163;52.306;5.634;2023-09-08T06:28:40;101570.47;;;16.82;86.65
60319;BME280;46163;52.306;5.634;2023-09-08T06:31:08;101581.16;;;16.89;86.50
60319;BME280;46163;52.306;5.634;2023-09-08T06:33:34;101565.53;;;16.98;85.72
60319;BME280;46163;52.306;5.634;2023-09-08T06:35:59;101566.13;;;17.00;85.38
60319;BME280;46163;52.306;5.634;2023-09-08T06:38:24;101556.28;;;17.12;85.42
60319;BME280;46163;52.306;5.634;2023-09-08T06:40:54;101570.34;;;17.26;85.31
60319;BME280;46163;52.306;5.634;2023-09-08T06:43:20;101575.66;;;17.32;85.55
60319;BME280;46163;52.306;5.634;2023-09-08T06:45:48;101570.72;;;17.29;85.47
60319;BME280;46163;52.306;5.634;2023-09-08T06:48:14;101568.63;;;17.31;85.63
60319;BME280;46163;52.306;5.634;2023-09-08T06:50:40;101574.50;;;17.40;85.39
60319;BME280;46163;52.306;5.634;2023-09-08T06:53:05;101577.72;;;17.48;85.77
60319;BME280;46163;52.306;5.634;2023-09-08T06:55:30;101563.88;;;17.45;86.11
60319;BME280;46163;52.306;5.634;2023-09-08T06:57:59;101583.03;;;17.67;85.65
60319;BME280;46163;52.306;5.634;2023-09-08T07:00:24;101576.88;;;17.78;85.43
60319;BME280;46163;52.306;5.634;2023-09-08T07:02:50;101581.63;;;17.94;85.24
60319;BME280;46163;52.306;5.634;2023-09-08T07:05:16;101580.59;;;18.07;85.38
60319;BME280;46163;52.306;5.634;2023-09-08T07:07:41;101576.50;;;18.16;84.98
60319;BME280;46163;52.306;5.634;2023-09-08T07:10:07;101590.66;;;18.23;86.08
60319;BME280;46163;52.306;5.634;2023-09-08T07:12:34;101581.31;;;18.38;85.45
60319;BME280;46163;52.306;5.634;2023-09-08T07:14:59;101579.47;;;19.13;83.16
60319;BME280;46163;52.306;5.634;2023-09-08T07:17:25;101574.06;;;20.71;77.03
60319;BME280;46163;52.306;5.634;2023-09-08T07:19:51;101583.97;;;22.49;69.90
60319;BME280;46163;52.306;5.634;2023-09-08T07:22:17;101571.13;;;24.31;62.70
60319;BME280;46163;52.306;5.634;2023-09-08T07:24:44;101585.94;;;25.93;57.36
60319;BME280;46163;52.306;5.634;2023-09-08T07:27:10;101576.63;;;27.24;53.54
60319;BME280;46163;52.306;5.634;2023-09-08T07:29:39;101570.19;;;28.37;50.44
60319;BME280;46163;52.306;5.634;2023-09-08T07:32:04;101576.72;;;29.68;46.24
60319;BME280;46163;52.306;5.634;2023-09-08T07:34:30;101570.94;;;30.63;44.01
60319;BME280;46163;52.306;5.634;2023-09-08T07:36:55;101569.50;;;31.48;41.51
60319;BME280;46163;52.306;5.634;2023-09-08T07:39:21;101583.91;;;31.71;40.00
60319;BME280;46163;52.306;5.634;2023-09-08T07:41:46;101582.94;;;32.78;39.95
60319;BME280;46163;52.306;5.634;2023-09-08T07:44:12;101585.22;;;33.89;38.28
60319;BME280;46163;52.306;5.634;2023-09-08T07:46:38;101587.28;;;34.05;37.86
60319;BME280;46163;52.306;5.634;2023-09-08T07:49:03;101581.25;;;35.09;34.96
60319;BME280;46163;52.306;5.634;2023-09-08T07:51:29;101573.50;;;35.15;34.40
60319;BME280;46163;52.306;5.634;2023-09-08T07:53:54;101577.22;;;36.03;32.88
60319;BME280;46163;52.306;5.634;2023-09-08T07:56:21;101585.69;;;36.89;32.71
60319;BME280;46163;52.306;5.634;2023-09-08T07:58:46;101582.47;;;36.71;32.98
60319;BME280;46163;52.306;5.634;2023-09-08T08:01:13;101590.97;;;36.94;32.58
60319;BME280;46163;52.306;5.634;2023-09-08T08:03:39;101591.47;;;38.19;30.23
60319;BME280;46163;52.306;5.634;2023-09-08T08:06:05;101590.97;;;38.13;29.66
60319;BME280;46163;52.306;5.634;2023-09-08T08:08:31;101588.69;;;37.96;28.38
60319;BME280;46163;52.306;5.634;2023-09-08T08:10:57;101582.34;;;39.54;26.94
60319;BME280;46163;52.306;5.634;2023-09-08T08:13:23;101582.69;;;40.24;26.59
60319;BME280;46163;52.306;5.634;2023-09-08T08:15:48;101588.25;;;40.82;25.34
60319;BME280;46163;52.306;5.634;2023-09-08T08:18:17;101588.94;;;40.58;27.21
60319;BME280;46163;52.306;5.634;2023-09-08T08:20:43;101584.16;;;41.35;27.18
60319;BME280;46163;52.306;5.634;2023-09-08T08:23:08;101593.91;;;41.73;26.21
60319;BME280;46163;52.306;5.634;2023-09-08T08:25:34;101576.06;;;41.08;25.98
60319;BME280;46163;52.306;5.634;2023-09-08T08:27:59;101586.75;;;42.36;24.12
60319;BME280;46163;52.306;5.634;2023-09-08T08:30:26;101580.38;;;42.25;24.90
60319;BME280;46163;52.306;5.634;2023-09-08T08:32:51;101575.88;;;43.02;23.60
60319;BME280;46163;52.306;5.634;2023-09-08T08:35:19;101567.56;;;42.59;25.03
60319;BME280;46163;52.306;5.634;2023-09-08T08:37:44;101575.19;;;43.57;22.48
60319;BME280;46163;52.306;5.634;2023-09-08T08:40:10;101576.34;;;42.69;25.08
60319;BME280;46163;52.306;5.634;2023-09-08T08:42:37;101575.59;;;43.56;23.74
60319;BME280;46163;52.306;5.634;2023-09-08T08:45:03;101572.00;;;43.55;24.00
60319;BME280;46163;52.306;5.634;2023-09-08T08:47:29;101564.44;;;44.08;22.12
60319;BME280;46163;52.306;5.634;2023-09-08T08:49:56;101568.88;;;44.05;22.21
60319;BME280;46163;52.306;5.634;2023-09-08T08:52:25;101575.88;;;45.91;18.97
60319;BME280;46163;52.306;5.634;2023-09-08T08:54:53;101547.91;;;46.07;18.09
60319;BME280;46163;52.306;5.634;2023-09-08T08:57:19;101559.94;;;46.31;18.27
60319;BME280;46163;52.306;5.634;2023-09-08T08:59:45;101568.09;;;46.26;17.68
60319;BME280;46163;52.306;5.634;2023-09-08T09:02:12;101570.59;;;45.70;18.60
60319;BME280;46163;52.306;5.634;2023-09-08T09:04:40;101552.66;;;44.27;19.10
60319;BME280;46163;52.306;5.634;2023-09-08T09:07:07;101560.31;;;44.98;19.76
60319;BME280;46163;52.306;5.634;2023-09-08T09:09:34;101574.97;;;45.44;18.52
60319;BME280;46163;52.306;5.634;2023-09-08T09:12:05;101561.50;;;45.31;19.69
60319;BME280;46163;52.306;5.634;2023-09-08T09:14:34;101572.16;;;44.79;18.72
60319;BME280;46163;52.306;5.634;2023-09-08T09:17:00;101568.94;;;44.43;19.13
60319;BME280;46163;52.306;5.634;2023-09-08T09:19:30;101562.09;;;43.99;19.57
60319;BME280;46163;52.306;5.634;2023-09-08T09:21:57;101576.75;;;41.89;21.21
60319;BME280;46163;52.306;5.634;2023-09-08T09:27:00;101568.28;;;41.60;23.07
60319;BME280;46163;52.306;5.634;2023-09-08T09:29:27;101575.94;;;42.10;24.97
60319;BME280;46163;52.306;5.634;2023-09-08T09:31:55;101567.16;;;43.63;21.17
60319;BME280;46163;52.306;5.634;2023-09-08T09:34:21;101566.16;;;43.17;22.55
60319;BME280;46163;52.306;5.634;2023-09-08T09:36:47;101571.50;;;42.80;23.10
60319;BME280;46163;52.306;5.634;2023-09-08T09:39:21;101568.75;;;43.64;22.39
60319;BME280;46163;52.306;5.634;2023-09-08T09:41:49;101565.50;;;44.24;20.79
60319;BME280;46163;52.306;5.634;2023-09-08T09:44:18;101561.75;;;43.24;21.30
60319;BME280;46163;52.306;5.634;2023-09-08T09:46:47;101562.44;;;44.05;21.37
60319;BME280;46163;52.306;5.634;2023-09-08T09:49:14;101555.03;;;44.28;21.06
60319;BME280;46163;52.306;5.634;2023-09-08T09:51:50;101563.94;;;43.64;22.77
60319;BME280;46163;52.306;5.634;2023-09-08T09:54:18;101559.59;;;45.79;18.31
60319;BME280;46163;52.306;5.634;2023-09-08T09:56:45;101574.59;;;46.66;17.92
60319;BME280;46163;52.306;5.634;2023-09-08T09:59:11;101556.25;;;46.58;17.82
60319;BME280;46163;52.306;5.634;2023-09-08T10:01:39;101570.53;;;46.67;18.28
60319;BME280;46163;52.306;5.634;2023-09-08T10:04:05;101559.69;;;46.45;18.17
60319;BME280;46163;52.306;5.634;2023-09-08T10:06:32;101569.91;;;45.62;18.76
60319;BME280;46163;52.306;5.634;2023-09-08T10:09:03;101563.09;;;45.59;19.21
60319;BME280;46163;52.306;5.634;2023-09-08T10:11:36;101539.13;;;45.51;18.45
60319;BME280;46163;52.306;5.634;2023-09-08T10:14:04;101556.53;;;45.43;18.62
60319;BME280;46163;52.306;5.634;2023-09-08T10:16:34;101543.28;;;45.13;19.58
60319;BME280;46163;52.306;5.634;2023-09-08T10:19:00;101560.97;;;43.89;20.94
60319;BME280;46163;52.306;5.634;2023-09-08T10:21:30;101559.75;;;41.17;23.68
60319;BME280;46163;52.306;5.634;2023-09-08T10:24:06;101556.03;;;39.52;26.26
60319;BME280;46163;52.306;5.634;2023-09-08T10:26:40;101555.31;;;37.31;29.95
60319;BME280;46163;52.306;5.634;2023-09-08T10:29:09;101559.63;;;35.27;35.38
60319;BME280;46163;52.306;5.634;2023-09-08T10:31:37;101549.84;;;34.40;35.92
60319;BME280;46163;52.306;5.634;2023-09-08T10:34:03;101549.63;;;33.34;36.00
60319;BME280;46163;52.306;5.634;2023-09-08T10:36:29;101552.00;;;32.73;37.31
60319;BME280;46163;52.306;5.634;2023-09-08T10:39:33;101550.69;;;31.94;39.37
60319;BME280;46163;52.306;5.634;2023-09-08T10:42:25;101549.06;;;31.93;38.01
60319;BME280;46163;52.306;5.634;2023-09-08T10:44:56;101542.97;;;31.44;39.41
60319;BME280;46163;52.306;5.634;2023-09-08T10:47:34;101542.28;;;30.95;40.46
60319;BME280;46163;52.306;5.634;2023-09-08T10:50:05;101538.72;;;30.86;40.42
60319;BME280;46163;52.306;5.634;2023-09-08T10:52:35;101537.97;;;30.23;41.18
60319;BME280;46163;52.306;5.634;2023-09-08T10:55:01;101532.00;;;29.68;43.58
60319;BME280;46163;52.306;5.634;2023-09-08T10:57:27;101534.53;;;29.87;41.03
60319;BME280;46163;52.306;5.634;2023-09-08T10:59:58;101536.50;;;29.64;42.83
60319;BME280;46163;52.306;5.634;2023-09-08T11:02:39;101540.44;;;29.49;43.72
60319;BME280;46163;52.306;5.634;2023-09-08T11:05:08;101537.28;;;29.87;42.39
60319;BME280;46163;52.306;5.634;2023-09-08T11:07:39;101535.69;;;30.08;42.50
60319;BME280;46163;52.306;5.634;2023-09-08T11:10:06;101528.31;;;30.26;41.68
60319;BME280;46163;52.306;5.634;2023-09-08T11:12:32;101529.09;;;30.18;40.95
60319;BME280;46163;52.306;5.634;2023-09-08T11:14:59;101537.94;;;30.15;41.73
60319;BME280;46163;52.306;5.634;2023-09-08T11:17:30;101542.50;;;30.19;41.10
60319;BME280;46163;52.306;5.634;2023-09-08T11:19:56;101541.53;;;30.15;41.41
60319;BME280;46163;52.306;5.634;2023-09-08T11:22:23;101528.03;;;30.05;40.40
60319;BME280;46163;52.306;5.634;2023-09-08T11:24:53;101533.34;;;30.01;41.05
60319;BME280;46163;52.306;5.634;2023-09-08T11:27:20;101529.69;;;29.83;41.00
60319;BME280;46163;52.306;5.634;2023-09-08T11:29:47;101537.06;;;29.52;42.27
60319;BME280;46163;52.306;5.634;2023-09-08T11:32:12;101532.59;;;29.42;41.92
60319;BME280;46163;52.306;5.634;2023-09-08T11:34:38;101531.16;;;29.22;43.79
60319;BME280;46163;52.306;5.634;2023-09-08T11:37:15;101546.06;;;28.94;46.56
60319;BME280;46163;52.306;5.634;2023-09-08T11:39:42;101544.81;;;28.86;45.09
60319;BME280;46163;52.306;5.634;2023-09-08T11:42:08;101537.28;;;29.06;43.81
60319;BME280;46163;52.306;5.634;2023-09-08T11:44:35;101547.03;;;28.84;46.96
60319;BME280;46163;52.306;5.634;2023-09-08T11:47:02;101539.72;;;29.07;44.84
60319;BME280;46163;52.306;5.634;2023-09-08T11:49:38;101538.91;;;29.07;43.92
60319;BME280;46163;52.306;5.634;2023-09-08T11:52:05;101545.53;;;28.92;45.44
60319;BME280;46163;52.306;5.634;2023-09-08T11:54:31;101541.50;;;28.89;45.33
60319;BME280;46163;52.306;5.634;2023-09-08T11:57:04;101511.97;;;28.72;46.28
60319;BME280;46163;52.306;5.634;2023-09-08T11:59:35;101538.34;;;28.96;45.07
60319;BME280;46163;52.306;5.634;2023-09-08T12:02:01;101534.97;;;28.99;44.80
60319;BME280;46163;52.306;5.634;2023-09-08T12:04:28;101530.31;;;28.86;47.39
60319;BME280;46163;52.306;5.634;2023-09-08T12:06:54;101532.53;;;29.34;43.52
60319;BME280;46163;52.306;5.634;2023-09-08T12:09:25;101529.78;;;29.11;44.63
60319;BME280;46163;52.306;5.634;2023-09-08T12:11:53;101509.03;;;29.19;44.18
60319;BME280;46163;52.306;5.634;2023-09-08T12:14:18;101540.66;;;29.39;43.81
60319;BME280;46163;52.306;5.634;2023-09-08T12:16:46;101524.94;;;29.98;42.54
60319;BME280;46163;52.306;5.634;2023-09-08T12:19:31;101518.50;;;30.33;42.53
60319;BME280;46163;52.306;5.634;2023-09-08T12:22:00;101514.69;;;30.52;41.64
60319;BME280;46163;52.306;5.634;2023-09-08T12:25:08;101519.78;;;30.67;41.50
60319;BME280;46163;52.306;5.634;2023-09-08T12:27:36;101505.53;;;30.74;40.69
60319;BME280;46163;52.306;5.634;2023-09-08T12:30:02;101500.88;;;30.83;40.53
60319;BME280;46163;52.306;5.634;2023-09-08T12:32:31;101521.13;;;31.04;42.69
60319;BME280;46163;52.306;5.634;2023-09-08T12:34:58;101520.28;;;30.95;43.73
60319;BME280;46163;52.306;5.634;2023-09-08T12:37:25;101510.88;;;30.70;40.02
60319;BME280;46163;52.306;5.634;2023-09-08T12:39:55;101521.75;;;30.35;42.14
60319;BME280;46163;52.306;5.634;2023-09-08T12:42:20;101502.25;;;30.15;43.01
60319;BME280;46163;52.306;5.634;2023-09-08T12:44:47;101504.78;;;30.33;42.09
60319;BME280;46163;52.306;5.634;2023-09-08T12:47:12;101485.00;;;30.23;43.60
60319;BME280;46163;52.306;5.634;2023-09-08T12:49:41;101508.91;;;30.22;41.68
60319;BME280;46163;52.306;5.634;2023-09-08T12:52:06;101498.41;;;30.16;43.30
60319;BME280;46163;52.306;5.634;2023-09-08T12:54:32;101507.59;;;30.11;43.72
60319;BME280;46163;52.306;5.634;2023-09-08T12:56:57;101508.31;;;30.25;43.29